sensor_id;sensor_type;location;lat;lon;timestamp;P1;durP1;ratioP1;P2;durP2;ratioP2
4174;SDS011;2101;48.290;14.382;2023-08-30T00:01:55;14.87;;;2.10;;
4174;SDS011;2101;48.290;14.382;2023-08-30T00:04:26;16.17;;;2.50;;
4174;SDS011;2101;48.290;14.382;2023-08-30T00:06:58;15.57;;;2.60;;
4174;SDS011;2101;48.290;14.382;2023-08-30T00:09:24;16.17;;;2.80;;
4174;SDS011;2101;48.290;14.382;2023-08-30T00:11:50;15.60;;;2.90;;
4174;SDS011;2101;48.290;14.382;2023-08-30T00:14:16;17.57;;;2.77;;
4174;SDS011;2101;48.290;14.382;2023-08-30T00:16:42;17.80;;;3.27;;
4174;SDS011;2101;48.290;14.382;2023-08-30T00:19:08;22.47;;;2.93;;
4174;SDS011;2101;48.290;14.382;2023-08-30T00:21:35;17.47;;;3.80;;
4174;SDS011;2101;48.290;14.382;2023-08-30T00:24:01;19.27;;;3.20;;
4174;SDS011;2101;48.290;14.382;2023-08-30T00:26:27;17.40;;;3.40;;
4174;SDS011;2101;48.290;14.382;2023-08-30T00:28:53;18.27;;;3.50;;
4174;SDS011;2101;48.290;14.382;2023-08-30T00:31:19;17.53;;;3.27;;
4174;SDS011;2101;48.290;14.382;2023-08-30T00:33:45;17.70;;;3.60;;
4174;SDS011;2101;48.290;14.382;2023-08-30T00:36:11;16.60;;;3.07;;
4174;SDS011;2101;48.290;14.382;2023-08-30T00:38:38;16.27;;;2.53;;
4174;SDS011;2101;48.290;14.382;2023-08-30T00:41:04;16.87;;;3.20;;
4174;SDS011;2101;48.290;14.382;2023-08-30T00:43:30;17.77;;;3.63;;
4174;SDS011;2101;48.290;14.382;2023-08-30T00:46:00;16.07;;;3.20;;
4174;SDS011;2101;48.290;14.382;2023-08-30T00:48:26;17.87;;;3.50;;
4174;SDS011;2101;48.290;14.382;2023-08-30T00:50:53;16.03;;;2.80;;
4174;SDS011;2101;48.290;14.382;2023-08-30T00:53:22;16.00;;;2.97;;
4174;SDS011;2101;48.290;14.382;2023-08-30T00:55:48;22.97;;;2.30;;
4174;SDS011;2101;48.290;14.382;2023-08-30T00:58:14;16.77;;;2.80;;
4174;SDS011;2101;48.290;14.382;2023-08-30T01:00:40;16.43;;;2.50;;
4174;SDS011;2101;48.290;14.382;2023-08-30T01:03:07;14.90;;;2.27;;
4174;SDS011;2101;48.290;14.382;2023-08-30T01:05:33;17.03;;;2.80;;
4174;SDS011;2101;48.290;14.382;2023-08-30T01:08:03;14.70;;;2.17;;
4174;SDS011;2101;48.290;14.382;2023-08-30T01:13:12;15.40;;;2.90;;
4174;SDS011;2101;48.290;14.382;2023-08-30T01:15:40;18.53;;;2.50;;
4174;SDS011;2101;48.290;14.382;2023-08-30T01:18:13;18.13;;;2.53;;
4174;SDS011;2101;48.290;14.382;2023-08-30T01:20:40;16.20;;;2.20;;
4174;SDS011;2101;48.290;14.382;2023-08-30T01:23:20;14.87;;;2.23;;
4174;SDS011;2101;48.290;14.382;2023-08-30T01:28:23;14.10;;;2.13;;
4174;SDS011;2101;48.290;14.382;2023-08-30T01:30:49;18.10;;;2.20;;
4174;SDS011;2101;48.290;14.382;2023-08-30T01:33:19;15.33;;;2.57;;
4174;SDS011;2101;48.290;14.382;2023-08-30T01:35:51;13.93;;;1.97;;
4174;SDS011;2101;48.290;14.382;2023-08-30T01:38:17;14.43;;;2.37;;
4174;SDS011;2101;48.290;14.382;2023-08-30T01:40:44;15.17;;;1.90;;
4174;SDS011;2101;48.290;14.382;2023-08-30T01:43:14;14.70;;;1.90;;
4174;SDS011;2101;48.290;14.382;2023-08-30T01:45:43;14.00;;;1.87;;
4174;SDS011;2101;48.290;14.382;2023-08-30T01:48:10;13.87;;;1.97;;
4174;SDS011;2101;48.290;14.382;2023-08-30T01:50:39;13.40;;;1.63;;
4174;SDS011;2101;48.290;14.382;2023-08-30T01:53:06;13.57;;;1.40;;
4174;SDS011;2101;48.290;14.382;2023-08-30T01:55:39;14.87;;;1.70;;
4174;SDS011;2101;48.290;14.382;2023-08-30T01:58:06;14.10;;;1.37;;
4174;SDS011;2101;48.290;14.382;2023-08-30T02:00:40;14.73;;;1.57;;
4174;SDS011;2101;48.290;14.382;2023-08-30T02:03:09;13.47;;;1.47;;
4174;SDS011;2101;48.290;14.382;2023-08-30T02:05:36;13.83;;;1.53;;
4174;SDS011;2101;48.290;14.382;2023-08-30T02:10:30;13.50;;;1.57;;
4174;SDS011;2101;48.290;14.382;2023-08-30T02:12:59;13.43;;;1.60;;
4174;SDS011;2101;48.290;14.382;2023-08-30T02:15:30;15.07;;;1.80;;
4174;SDS011;2101;48.290;14.382;2023-08-30T02:17:57;14.47;;;1.60;;
4174;SDS011;2101;48.290;14.382;2023-08-30T02:20:24;12.90;;;1.23;;
4174;SDS011;2101;48.290;14.382;2023-08-30T02:22:50;13.10;;;1.10;;
4174;SDS011;2101;48.290;14.382;2023-08-30T02:25:17;14.87;;;1.67;;
4174;SDS011;2101;48.290;14.382;2023-08-30T02:27:43;13.93;;;1.53;;
4174;SDS011;2101;48.290;14.382;2023-08-30T02:30:09;12.90;;;1.27;;
4174;SDS011;2101;48.290;14.382;2023-08-30T02:32:35;13.47;;;1.40;;
4174;SDS011;2101;48.290;14.382;2023-08-30T02:35:01;13.77;;;1.63;;
4174;SDS011;2101;48.290;14.382;2023-08-30T02:37:28;13.40;;;1.30;;
4174;SDS011;2101;48.290;14.382;2023-08-30T02:39:56;14.37;;;1.60;;
4174;SDS011;2101;48.290;14.382;2023-08-30T02:42:22;14.53;;;1.80;;
4174;SDS011;2101;48.290;14.382;2023-08-30T02:44:48;14.10;;;1.73;;
4174;SDS011;2101;48.290;14.382;2023-08-30T02:47:14;14.63;;;1.73;;
4174;SDS011;2101;48.290;14.382;2023-08-30T02:49:40;13.70;;;1.80;;
4174;SDS011;2101;48.290;14.382;2023-08-30T02:52:06;14.67;;;1.80;;
4174;SDS011;2101;48.290;14.382;2023-08-30T02:54:38;13.27;;;1.60;;
4174;SDS011;2101;48.290;14.382;2023-08-30T02:57:04;15.00;;;1.80;;
4174;SDS011;2101;48.290;14.382;2023-08-30T02:59:30;14.37;;;1.87;;
4174;SDS011;2101;48.290;14.382;2023-08-30T03:01:56;13.90;;;1.77;;
4174;SDS011;2101;48.290;14.382;2023-08-30T03:04:23;14.13;;;1.80;;
4174;SDS011;2101;48.290;14.382;2023-08-30T03:06:50;13.87;;;1.80;;
4174;SDS011;2101;48.290;14.382;2023-08-30T03:09:16;15.70;;;1.77;;
4174;SDS011;2101;48.290;14.382;2023-08-30T03:11:42;14.27;;;1.90;;
4174;SDS011;2101;48.290;14.382;2023-08-30T03:14:08;14.30;;;1.33;;
4174;SDS011;2101;48.290;14.382;2023-08-30T03:16:34;13.50;;;1.70;;
4174;SDS011;2101;48.290;14.382;2023-08-30T03:19:01;17.53;;;2.20;;
4174;SDS011;2101;48.290;14.382;2023-08-30T03:21:27;15.30;;;2.20;;
4174;SDS011;2101;48.290;14.382;2023-08-30T03:23:54;13.57;;;1.83;;
4174;SDS011;2101;48.290;14.382;2023-08-30T03:26:20;14.30;;;1.93;;
4174;SDS011;2101;48.290;14.382;2023-08-30T03:28:46;14.13;;;1.97;;
4174;SDS011;2101;48.290;14.382;2023-08-30T03:31:17;14.30;;;1.50;;
4174;SDS011;2101;48.290;14.382;2023-08-30T03:33:44;15.07;;;2.10;;
4174;SDS011;2101;48.290;14.382;2023-08-30T03:36:10;15.13;;;1.90;;
4174;SDS011;2101;48.290;14.382;2023-08-30T03:38:37;13.60;;;1.73;;
4174;SDS011;2101;48.290;14.382;2023-08-30T03:41:04;13.83;;;1.93;;
4174;SDS011;2101;48.290;14.382;2023-08-30T03:43:35;18.23;;;1.83;;
4174;SDS011;2101;48.290;14.382;2023-08-30T03:46:04;14.37;;;2.27;;
4174;SDS011;2101;48.290;14.382;2023-08-30T03:48:32;18.33;;;1.57;;
4174;SDS011;2101;48.290;14.382;2023-08-30T03:50:58;14.10;;;1.93;;
4174;SDS011;2101;48.290;14.382;2023-08-30T03:53:24;16.30;;;2.50;;
4174;SDS011;2101;48.290;14.382;2023-08-30T03:55:51;14.30;;;1.83;;
4174;SDS011;2101;48.290;14.382;2023-08-30T03:58:19;14.27;;;2.00;;
4174;SDS011;2101;48.290;14.382;2023-08-30T04:00:46;15.13;;;2.50;;
4174;SDS011;2101;48.290;14.382;2023-08-30T04:03:13;16.67;;;3.10;;
4174;SDS011;2101;48.290;14.382;2023-08-30T04:05:40;16.57;;;3.30;;
4174;SDS011;2101;48.290;14.382;2023-08-30T04:08:06;17.93;;;3.13;;
4174;SDS011;2101;48.290;14.382;2023-08-30T04:10:42;17.30;;;3.37;;
4174;SDS011;2101;48.290;14.382;2023-08-30T04:13:12;17.87;;;3.90;;
4174;SDS011;2101;48.290;14.382;2023-08-30T04:15:38;22.87;;;4.47;;
4174;SDS011;2101;48.290;14.382;2023-08-30T04:18:05;19.73;;;4.63;;
4174;SDS011;2101;48.290;14.382;2023-08-30T04:20:32;18.33;;;4.83;;
4174;SDS011;2101;48.290;14.382;2023-08-30T04:22:59;25.80;;;6.13;;
4174;SDS011;2101;48.290;14.382;2023-08-30T04:25:33;24.73;;;6.73;;
4174;SDS011;2101;48.290;14.382;2023-08-30T04:28:00;23.90;;;6.13;;
4174;SDS011;2101;48.290;14.382;2023-08-30T04:30:26;21.13;;;6.17;;
4174;SDS011;2101;48.290;14.382;2023-08-30T04:32:52;22.43;;;7.00;;
4174;SDS011;2101;48.290;14.382;2023-08-30T04:35:18;24.13;;;7.10;;
4174;SDS011;2101;48.290;14.382;2023-08-30T04:37:46;25.53;;;6.30;;
4174;SDS011;2101;48.290;14.382;2023-08-30T04:40:13;23.00;;;6.63;;
4174;SDS011;2101;48.290;14.382;2023-08-30T04:42:45;22.63;;;6.10;;
4174;SDS011;2101;48.290;14.382;2023-08-30T04:45:13;23.10;;;7.10;;
4174;SDS011;2101;48.290;14.382;2023-08-30T04:47:39;25.27;;;8.00;;
4174;SDS011;2101;48.290;14.382;2023-08-30T04:50:08;32.27;;;8.40;;
4174;SDS011;2101;48.290;14.382;2023-08-30T04:52:34;24.70;;;7.13;;
4174;SDS011;2101;48.290;14.382;2023-08-30T04:55:07;27.30;;;7.83;;
4174;SDS011;2101;48.290;14.382;2023-08-30T04:57:35;28.90;;;8.33;;
4174;SDS011;2101;48.290;14.382;2023-08-30T05:00:18;28.13;;;7.40;;
4174;SDS011;2101;48.290;14.382;2023-08-30T05:02:49;28.83;;;8.03;;
4174;SDS011;2101;48.290;14.382;2023-08-30T05:08:44;26.53;;;7.00;;
4174;SDS011;2101;48.290;14.382;2023-08-30T05:11:11;23.50;;;6.50;;
4174;SDS011;2101;48.290;14.382;2023-08-30T05:13:47;21.17;;;6.60;;
4174;SDS011;2101;48.290;14.382;2023-08-30T05:16:48;20.60;;;5.63;;
4174;SDS011;2101;48.290;14.382;2023-08-30T05:19:45;21.10;;;6.07;;
4174;SDS011;2101;48.290;14.382;2023-08-30T05:22:37;26.70;;;5.70;;
4174;SDS011;2101;48.290;14.382;2023-08-30T05:25:19;25.80;;;6.37;;
4174;SDS011;2101;48.290;14.382;2023-08-30T05:28:00;20.30;;;5.70;;
4174;SDS011;2101;48.290;14.382;2023-08-30T05:33:14;20.63;;;6.13;;
4174;SDS011;2101;48.290;14.382;2023-08-30T05:36:00;24.23;;;6.60;;
4174;SDS011;2101;48.290;14.382;2023-08-30T05:38:36;21.77;;;6.30;;
4174;SDS011;2101;48.290;14.382;2023-08-30T05:41:25;23.30;;;5.93;;
4174;SDS011;2101;48.290;14.382;2023-08-30T05:44:21;20.83;;;6.00;;
4174;SDS011;2101;48.290;14.382;2023-08-30T05:47:13;22.37;;;5.93;;
4174;SDS011;2101;48.290;14.382;2023-08-30T05:50:24;22.83;;;5.47;;
4174;SDS011;2101;48.290;14.382;2023-08-30T05:56:20;24.17;;;6.70;;
4174;SDS011;2101;48.290;14.382;2023-08-30T05:59:22;19.73;;;5.87;;
4174;SDS011;2101;48.290;14.382;2023-08-30T06:04:59;26.67;;;5.83;;
4174;SDS011;2101;48.290;14.382;2023-08-30T06:08:01;25.13;;;6.77;;
4174;SDS011;2101;48.290;14.382;2023-08-30T06:10:50;21.40;;;6.20;;
4174;SDS011;2101;48.290;14.382;2023-08-30T06:13:21;24.03;;;6.80;;
4174;SDS011;2101;48.290;14.382;2023-08-30T06:15:51;20.50;;;5.97;;
4174;SDS011;2101;48.290;14.382;2023-08-30T06:18:26;21.07;;;6.00;;
4174;SDS011;2101;48.290;14.382;2023-08-30T06:20:55;23.07;;;6.57;;
4174;SDS011;2101;48.290;14.382;2023-08-30T06:23:43;22.30;;;5.90;;
4174;SDS011;2101;48.290;14.382;2023-08-30T06:26:12;22.80;;;6.30;;
4174;SDS011;2101;48.290;14.382;2023-08-30T06:28:38;24.70;;;5.60;;
4174;SDS011;2101;48.290;14.382;2023-08-30T06:31:13;19.40;;;5.40;;
4174;SDS011;2101;48.290;14.382;2023-08-30T06:33:47;21.23;;;5.50;;
4174;SDS011;2101;48.290;14.382;2023-08-30T06:39:33;19.73;;;5.27;;
4174;SDS011;2101;48.290;14.382;2023-08-30T06:42:25;20.10;;;5.63;;
4174;SDS011;2101;48.290;14.382;2023-08-30T06:44:51;30.60;;;5.63;;
4174;SDS011;2101;48.290;14.382;2023-08-30T06:47:17;20.70;;;5.40;;
4174;SDS011;2101;48.290;14.382;2023-08-30T06:49:48;21.50;;;4.77;;
4174;SDS011;2101;48.290;14.382;2023-08-30T06:52:19;20.87;;;5.53;;
4174;SDS011;2101;48.290;14.382;2023-08-30T06:54:46;20.50;;;6.10;;
4174;SDS011;2101;48.290;14.382;2023-08-30T06:57:13;21.20;;;5.80;;
4174;SDS011;2101;48.290;14.382;2023-08-30T06:59:39;19.83;;;4.87;;
4174;SDS011;2101;48.290;14.382;2023-08-30T07:02:07;26.33;;;6.03;;
4174;SDS011;2101;48.290;14.382;2023-08-30T07:04:33;19.67;;;4.43;;
4174;SDS011;2101;48.290;14.382;2023-08-30T07:06:59;21.00;;;5.43;;
4174;SDS011;2101;48.290;14.382;2023-08-30T07:09:25;20.70;;;6.17;;
4174;SDS011;2101;48.290;14.382;2023-08-30T07:11:55;30.63;;;6.00;;
4174;SDS011;2101;48.290;14.382;2023-08-30T07:14:24;24.30;;;6.30;;
4174;SDS011;2101;48.290;14.382;2023-08-30T07:16:51;20.43;;;5.17;;
4174;SDS011;2101;48.290;14.382;2023-08-30T07:19:17;19.70;;;5.10;;
4174;SDS011;2101;48.290;14.382;2023-08-30T07:21:46;21.60;;;5.60;;
4174;SDS011;2101;48.290;14.382;2023-08-30T07:24:13;31.40;;;5.80;;
4174;SDS011;2101;48.290;14.382;2023-08-30T07:26:40;20.07;;;5.60;;
4174;SDS011;2101;48.290;14.382;2023-08-30T07:29:08;22.70;;;5.00;;
4174;SDS011;2101;48.290;14.382;2023-08-30T07:31:35;21.00;;;4.70;;
4174;SDS011;2101;48.290;14.382;2023-08-30T07:34:01;19.30;;;5.17;;
4174;SDS011;2101;48.290;14.382;2023-08-30T07:36:27;18.93;;;5.17;;
4174;SDS011;2101;48.290;14.382;2023-08-30T07:38:54;22.07;;;5.53;;
4174;SDS011;2101;48.290;14.382;2023-08-30T07:41:20;23.00;;;5.97;;
4174;SDS011;2101;48.290;14.382;2023-08-30T07:43:46;19.83;;;4.83;;
4174;SDS011;2101;48.290;14.382;2023-08-30T07:46:13;20.57;;;5.30;;
4174;SDS011;2101;48.290;14.382;2023-08-30T07:48:39;18.70;;;4.47;;
4174;SDS011;2101;48.290;14.382;2023-08-30T07:51:07;21.97;;;5.13;;
4174;SDS011;2101;48.290;14.382;2023-08-30T07:53:36;18.43;;;5.10;;
4174;SDS011;2101;48.290;14.382;2023-08-30T07:56:02;22.10;;;4.87;;
4174;SDS011;2101;48.290;14.382;2023-08-30T07:58:29;19.87;;;4.63;;
4174;SDS011;2101;48.290;14.382;2023-08-30T08:00:55;18.37;;;4.70;;
4174;SDS011;2101;48.290;14.382;2023-08-30T08:03:21;18.50;;;4.30;;
4174;SDS011;2101;48.290;14.382;2023-08-30T08:05:49;25.40;;;4.70;;
4174;SDS011;2101;48.290;14.382;2023-08-30T08:08:16;18.63;;;4.37;;
4174;SDS011;2101;48.290;14.382;2023-08-30T08:10:44;18.17;;;4.40;;
4174;SDS011;2101;48.290;14.382;2023-08-30T08:13:10;19.70;;;4.53;;
4174;SDS011;2101;48.290;14.382;2023-08-30T08:15:38;19.33;;;4.67;;
4174;SDS011;2101;48.290;14.382;2023-08-30T08:18:07;20.00;;;3.63;;
4174;SDS011;2101;48.290;14.382;2023-08-30T08:20:33;15.70;;;3.30;;
4174;SDS011;2101;48.290;14.382;2023-08-30T08:23:02;19.37;;;4.00;;
4174;SDS011;2101;48.290;14.382;2023-08-30T08:25:30;22.47;;;4.00;;
4174;SDS011;2101;48.290;14.382;2023-08-30T08:27:58;19.83;;;3.43;;
4174;SDS011;2101;48.290;14.382;2023-08-30T08:30:25;16.90;;;3.60;;
4174;SDS011;2101;48.290;14.382;2023-08-30T08:32:51;20.03;;;3.60;;
4174;SDS011;2101;48.290;14.382;2023-08-30T08:35:17;18.00;;;3.70;;
4174;SDS011;2101;48.290;14.382;2023-08-30T08:37:45;15.50;;;3.00;;
4174;SDS011;2101;48.290;14.382;2023-08-30T08:40:11;18.77;;;3.80;;
4174;SDS011;2101;48.290;14.382;2023-08-30T08:42:37;16.83;;;3.27;;
4174;SDS011;2101;48.290;14.382;2023-08-30T08:45:04;15.63;;;3.10;;
4174;SDS011;2101;48.290;14.382;2023-08-30T08:47:30;16.00;;;2.93;;
4174;SDS011;2101;48.290;14.382;2023-08-30T08:49:57;16.37;;;3.17;;
4174;SDS011;2101;48.290;14.382;2023-08-30T08:52:23;21.90;;;3.23;;
4174;SDS011;2101;48.290;14.382;2023-08-30T08:54:50;34.10;;;3.33;;
4174;SDS011;2101;48.290;14.382;2023-08-30T08:57:17;16.00;;;2.70;;
4174;SDS011;2101;48.290;14.382;2023-08-30T08:59:47;18.30;;;3.53;;
4174;SDS011;2101;48.290;14.382;2023-08-30T09:02:13;17.73;;;3.47;;
4174;SDS011;2101;48.290;14.382;2023-08-30T09:04:39;16.00;;;3.00;;
4174;SDS011;2101;48.290;14.382;2023-08-30T09:07:06;18.20;;;4.03;;
4174;SDS011;2101;48.290;14.382;2023-08-30T09:09:38;17.47;;;3.57;;
4174;SDS011;2101;48.290;14.382;2023-08-30T09:12:06;17.33;;;3.47;;
4174;SDS011;2101;48.290;14.382;2023-08-30T09:14:33;16.23;;;3.13;;
4174;SDS011;2101;48.290;14.382;2023-08-30T09:17:00;16.43;;;3.43;;
4174;SDS011;2101;48.290;14.382;2023-08-30T09:19:26;15.57;;;2.90;;
4174;SDS011;2101;48.290;14.382;2023-08-30T09:21:56;21.00;;;3.00;;
4174;SDS011;2101;48.290;14.382;2023-08-30T09:24:22;17.37;;;3.40;;
4174;SDS011;2101;48.290;14.382;2023-08-30T09:26:52;17.20;;;2.57;;
4174;SDS011;2101;48.290;14.382;2023-08-30T09:29:20;20.43;;;3.70;;
4174;SDS011;2101;48.290;14.382;2023-08-30T09:31:46;16.37;;;2.93;;
4174;SDS011;2101;48.290;14.382;2023-08-30T09:34:16;17.03;;;3.13;;
4174;SDS011;2101;48.290;14.382;2023-08-30T09:36:44;15.90;;;2.70;;
4174;SDS011;2101;48.290;14.382;2023-08-30T09:39:17;15.60;;;2.70;;
4174;SDS011;2101;48.290;14.382;2023-08-30T09:41:47;20.93;;;4.00;;
4174;SDS011;2101;48.290;14.382;2023-08-30T09:44:15;18.17;;;3.53;;
4174;SDS011;2101;48.290;14.382;2023-08-30T09:46:45;15.90;;;2.77;;
4174;SDS011;2101;48.290;14.382;2023-08-30T09:49:11;17.80;;;3.60;;
4174;SDS011;2101;48.290;14.382;2023-08-30T09:51:38;17.80;;;3.57;;
4174;SDS011;2101;48.290;14.382;2023-08-30T09:57:06;16.13;;;3.13;;
4174;SDS011;2101;48.290;14.382;2023-08-30T09:59:33;15.77;;;1.90;;
4174;SDS011;2101;48.290;14.382;2023-08-30T10:01:59;14.90;;;2.10;;
4174;SDS011;2101;48.290;14.382;2023-08-30T10:04:26;14.00;;;1.70;;
4174;SDS011;2101;48.290;14.382;2023-08-30T10:06:55;14.07;;;1.50;;
4174;SDS011;2101;48.290;14.382;2023-08-30T10:09:30;17.07;;;1.73;;
4174;SDS011;2101;48.290;14.382;2023-08-30T10:12:01;14.33;;;1.80;;
4174;SDS011;2101;48.290;14.382;2023-08-30T10:14:29;15.27;;;1.97;;
4174;SDS011;2101;48.290;14.382;2023-08-30T10:16:59;14.30;;;1.50;;
4174;SDS011;2101;48.290;14.382;2023-08-30T10:19:28;15.20;;;1.93;;
4174;SDS011;2101;48.290;14.382;2023-08-30T10:22:01;14.23;;;1.50;;
4174;SDS011;2101;48.290;14.382;2023-08-30T10:24:43;16.30;;;1.90;;
4174;SDS011;2101;48.290;14.382;2023-08-30T10:27:10;14.40;;;1.50;;
4174;SDS011;2101;48.290;14.382;2023-08-30T10:29:37;14.30;;;1.60;;
4174;SDS011;2101;48.290;14.382;2023-08-30T10:32:07;14.23;;;1.40;;
4174;SDS011;2101;48.290;14.382;2023-08-30T10:34:34;25.30;;;1.30;;
4174;SDS011;2101;48.290;14.382;2023-08-30T10:37:02;13.67;;;1.20;;
4174;SDS011;2101;48.290;14.382;2023-08-30T10:39:36;13.50;;;1.23;;
4174;SDS011;2101;48.290;14.382;2023-08-30T10:42:12;13.47;;;1.30;;
4174;SDS011;2101;48.290;14.382;2023-08-30T10:47:22;13.53;;;1.20;;
4174;SDS011;2101;48.290;14.382;2023-08-30T10:49:53;13.50;;;1.13;;
4174;SDS011;2101;48.290;14.382;2023-08-30T10:52:22;13.93;;;1.13;;
4174;SDS011;2101;48.290;14.382;2023-08-30T10:54:49;13.33;;;1.20;;
4174;SDS011;2101;48.290;14.382;2023-08-30T10:57:20;14.77;;;1.20;;
4174;SDS011;2101;48.290;14.382;2023-08-30T11:00:06;15.70;;;1.30;;
4174;SDS011;2101;48.290;14.382;2023-08-30T11:02:34;19.47;;;1.33;;
4174;SDS011;2101;48.290;14.382;2023-08-30T11:05:01;13.80;;;1.43;;
4174;SDS011;2101;48.290;14.382;2023-08-30T11:07:30;14.90;;;1.77;;
4174;SDS011;2101;48.290;14.382;2023-08-30T11:09:57;14.40;;;1.20;;
4174;SDS011;2101;48.290;14.382;2023-08-30T11:12:25;16.13;;;1.20;;
4174;SDS011;2101;48.290;14.382;2023-08-30T11:14:52;13.97;;;1.50;;
4174;SDS011;2101;48.290;14.382;2023-08-30T11:17:21;15.53;;;1.50;;
4174;SDS011;2101;48.290;14.382;2023-08-30T11:19:50;14.47;;;1.40;;
4174;SDS011;2101;48.290;14.382;2023-08-30T11:22:17;14.23;;;1.27;;
4174;SDS011;2101;48.290;14.382;2023-08-30T11:24:43;14.60;;;1.13;;
4174;SDS011;2101;48.290;14.382;2023-08-30T11:27:16;15.53;;;1.60;;
4174;SDS011;2101;48.290;14.382;2023-08-30T11:29:45;15.50;;;1.23;;
4174;SDS011;2101;48.290;14.382;2023-08-30T11:32:11;14.30;;;1.53;;
4174;SDS011;2101;48.290;14.382;2023-08-30T11:34:37;14.90;;;1.67;;
4174;SDS011;2101;48.290;14.382;2023-08-30T11:37:03;14.47;;;1.40;;
4174;SDS011;2101;48.290;14.382;2023-08-30T11:39:30;13.70;;;1.50;;
4174;SDS011;2101;48.290;14.382;2023-08-30T11:41:56;13.90;;;1.40;;
4174;SDS011;2101;48.290;14.382;2023-08-30T11:44:28;13.90;;;1.53;;
4174;SDS011;2101;48.290;14.382;2023-08-30T11:46:57;15.67;;;1.57;;
4174;SDS011;2101;48.290;14.382;2023-08-30T11:49:24;13.60;;;1.30;;
4174;SDS011;2101;48.290;14.382;2023-08-30T11:51:51;13.30;;;1.07;;
4174;SDS011;2101;48.290;14.382;2023-08-30T11:54:18;13.97;;;1.37;;
4174;SDS011;2101;48.290;14.382;2023-08-30T11:56:44;15.53;;;1.43;;
4174;SDS011;2101;48.290;14.382;2023-08-30T11:59:20;14.23;;;1.40;;
4174;SDS011;2101;48.290;14.382;2023-08-30T12:01:49;14.70;;;1.40;;
4174;SDS011;2101;48.290;14.382;2023-08-30T12:04:18;13.80;;;1.23;;
4174;SDS011;2101;48.290;14.382;2023-08-30T12:06:50;15.03;;;1.20;;
4174;SDS011;2101;48.290;14.382;2023-08-30T12:09:17;13.50;;;1.00;;
4174;SDS011;2101;48.290;14.382;2023-08-30T12:11:47;13.40;;;1.10;;
4174;SDS011;2101;48.290;14.382;2023-08-30T12:14:13;13.37;;;0.93;;
4174;SDS011;2101;48.290;14.382;2023-08-30T12:16:42;14.30;;;1.00;;
4174;SDS011;2101;48.290;14.382;2023-08-30T12:19:11;13.17;;;0.80;;
4174;SDS011;2101;48.290;14.382;2023-08-30T12:21:42;13.17;;;0.80;;
4174;SDS011;2101;48.290;14.382;2023-08-30T12:24:09;15.70;;;0.90;;
4174;SDS011;2101;48.290;14.382;2023-08-30T12:26:43;13.23;;;0.90;;
4174;SDS011;2101;48.290;14.382;2023-08-30T12:29:10;12.97;;;0.80;;
4174;SDS011;2101;48.290;14.382;2023-08-30T12:31:39;12.80;;;0.70;;
4174;SDS011;2101;48.290;14.382;2023-08-30T12:34:46;13.10;;;0.70;;
4174;SDS011;2101;48.290;14.382;2023-08-30T12:37:44;13.00;;;0.80;;
4174;SDS011;2101;48.290;14.382;2023-08-30T12:40:37;13.60;;;0.70;;
4174;SDS011;2101;48.290;14.382;2023-08-30T12:43:04;13.10;;;0.90;;
4174;SDS011;2101;48.290;14.382;2023-08-30T12:45:30;12.97;;;0.80;;
4174;SDS011;2101;48.290;14.382;2023-08-30T12:47:56;13.00;;;0.80;;
4174;SDS011;2101;48.290;14.382;2023-08-30T12:50:24;12.90;;;0.80;;
4174;SDS011;2101;48.290;14.382;2023-08-30T12:52:50;13.50;;;1.00;;
4174;SDS011;2101;48.290;14.382;2023-08-30T12:55:16;13.33;;;1.07;;
4174;SDS011;2101;48.290;14.382;2023-08-30T12:57:47;13.13;;;0.80;;
4174;SDS011;2101;48.290;14.382;2023-08-30T13:00:13;14.03;;;0.80;;
4174;SDS011;2101;48.290;14.382;2023-08-30T13:02:42;12.63;;;0.70;;
4174;SDS011;2101;48.290;14.382;2023-08-30T13:05:08;14.13;;;0.83;;
4174;SDS011;2101;48.290;14.382;2023-08-30T13:07:36;13.03;;;0.97;;
4174;SDS011;2101;48.290;14.382;2023-08-30T13:10:06;16.03;;;0.93;;
4174;SDS011;2101;48.290;14.382;2023-08-30T13:12:32;13.10;;;0.90;;
4174;SDS011;2101;48.290;14.382;2023-08-30T13:14:58;14.63;;;1.00;;
4174;SDS011;2101;48.290;14.382;2023-08-30T13:17:25;12.77;;;0.80;;
4174;SDS011;2101;48.290;14.382;2023-08-30T13:19:51;13.27;;;1.10;;
4174;SDS011;2101;48.290;14.382;2023-08-30T13:22:21;13.07;;;0.90;;
4174;SDS011;2101;48.290;14.382;2023-08-30T13:24:47;14.53;;;1.00;;
4174;SDS011;2101;48.290;14.382;2023-08-30T13:27:13;13.07;;;0.90;;
4174;SDS011;2101;48.290;14.382;2023-08-30T13:29:45;14.47;;;1.03;;
4174;SDS011;2101;48.290;14.382;2023-08-30T13:32:11;12.90;;;0.80;;
4174;SDS011;2101;48.290;14.382;2023-08-30T13:34:38;12.87;;;0.87;;
4174;SDS011;2101;48.290;14.382;2023-08-30T13:37:08;13.00;;;1.00;;
4174;SDS011;2101;48.290;14.382;2023-08-30T13:39:35;13.50;;;1.10;;
4174;SDS011;2101;48.290;14.382;2023-08-30T13:42:01;12.90;;;0.87;;
4174;SDS011;2101;48.290;14.382;2023-08-30T13:44:27;12.87;;;0.87;;
4174;SDS011;2101;48.290;14.382;2023-08-30T13:46:54;14.20;;;1.00;;
4174;SDS011;2101;48.290;14.382;2023-08-30T13:49:23;14.63;;;1.00;;
4174;SDS011;2101;48.290;14.382;2023-08-30T13:51:50;16.90;;;1.23;;
4174;SDS011;2101;48.290;14.382;2023-08-30T13:54:16;13.50;;;1.33;;
4174;SDS011;2101;48.290;14.382;2023-08-30T13:56:43;13.47;;;1.20;;
4174;SDS011;2101;48.290;14.382;2023-08-30T13:59:12;14.00;;;1.27;;
4174;SDS011;2101;48.290;14.382;2023-08-30T14:01:39;13.70;;;1.30;;
4174;SDS011;2101;48.290;14.382;2023-08-30T14:04:05;13.70;;;1.30;;
4174;SDS011;2101;48.290;14.382;2023-08-30T14:06:32;15.23;;;1.20;;
4174;SDS011;2101;48.290;14.382;2023-08-30T14:08:58;13.60;;;1.17;;
4174;SDS011;2101;48.290;14.382;2023-08-30T14:11:24;13.73;;;1.20;;
4174;SDS011;2101;48.290;14.382;2023-08-30T14:13:53;14.23;;;1.50;;
4174;SDS011;2101;48.290;14.382;2023-08-30T14:16:19;17.87;;;1.57;;
4174;SDS011;2101;48.290;14.382;2023-08-30T14:18:52;14.90;;;1.50;;
4174;SDS011;2101;48.290;14.382;2023-08-30T14:21:20;13.97;;;1.40;;
4174;SDS011;2101;48.290;14.382;2023-08-30T14:23:46;14.30;;;1.40;;
4174;SDS011;2101;48.290;14.382;2023-08-30T14:26:12;13.20;;;0.97;;
4174;SDS011;2101;48.290;14.382;2023-08-30T14:28:39;15.67;;;1.10;;
4174;SDS011;2101;48.290;14.382;2023-08-30T14:31:09;13.40;;;1.13;;
4174;SDS011;2101;48.290;14.382;2023-08-30T14:33:35;13.67;;;1.40;;
4174;SDS011;2101;48.290;14.382;2023-08-30T14:36:02;14.17;;;1.80;;
4174;SDS011;2101;48.290;14.382;2023-08-30T14:38:28;14.70;;;1.43;;
4174;SDS011;2101;48.290;14.382;2023-08-30T14:40:55;14.30;;;1.50;;
4174;SDS011;2101;48.290;14.382;2023-08-30T14:43:21;13.77;;;1.23;;
4174;SDS011;2101;48.290;14.382;2023-08-30T14:45:51;15.60;;;1.50;;
4174;SDS011;2101;48.290;14.382;2023-08-30T14:48:17;17.37;;;2.13;;
4174;SDS011;2101;48.290;14.382;2023-08-30T14:50:43;14.67;;;1.60;;
4174;SDS011;2101;48.290;14.382;2023-08-30T14:53:10;14.90;;;1.67;;
4174;SDS011;2101;48.290;14.382;2023-08-30T14:55:36;13.73;;;1.27;;
4174;SDS011;2101;48.290;14.382;2023-08-30T14:58:02;13.80;;;1.37;;
4174;SDS011;2101;48.290;14.382;2023-08-30T15:00:28;15.00;;;1.70;;
4174;SDS011;2101;48.290;14.382;2023-08-30T15:02:54;14.10;;;1.43;;
4174;SDS011;2101;48.290;14.382;2023-08-30T15:05:23;13.73;;;1.20;;
4174;SDS011;2101;48.290;14.382;2023-08-30T15:07:50;15.90;;;1.70;;
4174;SDS011;2101;48.290;14.382;2023-08-30T15:10:16;16.53;;;2.50;;
4174;SDS011;2101;48.290;14.382;2023-08-30T15:12:42;16.30;;;2.50;;
4174;SDS011;2101;48.290;14.382;2023-08-30T15:15:09;54.63;;;9.50;;
4174;SDS011;2101;48.290;14.382;2023-08-30T15:17:37;18.20;;;3.07;;
4174;SDS011;2101;48.290;14.382;2023-08-30T15:20:04;22.33;;;3.37;;
4174;SDS011;2101;48.290;14.382;2023-08-30T15:22:33;17.10;;;2.97;;
4174;SDS011;2101;48.290;14.382;2023-08-30T15:25:00;15.40;;;2.43;;
4174;SDS011;2101;48.290;14.382;2023-08-30T15:27:33;16.70;;;2.93;;
4174;SDS011;2101;48.290;14.382;2023-08-30T15:30:00;15.43;;;2.33;;